createdAt,value
2022-08-10T00:00:21.099Z,17.40
2022-08-10T00:03:09.889Z,17.40
2022-08-10T00:05:56.635Z,17.40
2022-08-10T00:08:43.344Z,17.30
2022-08-10T00:11:29.927Z,17.30
2022-08-10T00:14:16.569Z,17.30
2022-08-10T00:17:02.960Z,17.20
2022-08-10T00:20:04.296Z,17.20
2022-08-10T00:22:57.844Z,17.20
2022-08-10T00:25:44.571Z,17.10
2022-08-10T00:28:31.049Z,17.10
2022-08-10T00:31:20.548Z,17.10
2022-08-10T00:34:06.670Z,17.10
2022-08-10T00:36:52.636Z,17.00
2022-08-10T00:39:39.405Z,17.00
2022-08-10T00:42:25.970Z,17.00
2022-08-10T00:45:12.269Z,17.00
2022-08-10T00:47:58.455Z,16.90
2022-08-10T00:50:44.425Z,16.90
2022-08-10T00:53:31.137Z,16.90
2022-08-10T00:57:12.214Z,16.80
2022-08-10T00:59:23.932Z,16.90
2022-08-10T01:02:11.851Z,16.80
2022-08-10T01:05:05.480Z,16.80
2022-08-10T01:08:07.315Z,16.80
2022-08-10T01:12:37.247Z,16.70
2022-08-10T01:14:40.598Z,16.70
2022-08-10T01:17:50.844Z,16.70
2022-08-10T01:21:25.049Z,16.60
2022-08-10T01:24:29.882Z,16.60
2022-08-10T01:27:28.844Z,16.60
2022-08-10T01:30:15.933Z,16.50
2022-08-10T01:33:12.138Z,16.50
2022-08-10T01:36:10.913Z,16.50
2022-08-10T01:39:00.274Z,16.50
2022-08-10T01:41:50.242Z,16.40
2022-08-10T01:44:45.492Z,16.40
2022-08-10T01:47:55.994Z,16.40
2022-08-10T01:50:59.102Z,16.30
2022-08-10T01:53:56.579Z,16.30
2022-08-10T01:56:45.845Z,16.30
2022-08-10T01:59:35.013Z,16.30
2022-08-10T02:02:22.450Z,16.30
2022-08-10T02:05:10.161Z,16.30
2022-08-10T02:07:58.745Z,16.20
2022-08-10T02:10:47.044Z,16.20
2022-08-10T02:13:34.116Z,16.10
2022-08-10T02:16:23.661Z,16.10
2022-08-10T02:19:15.886Z,16.10
2022-08-10T02:22:36.242Z,16.10
2022-08-10T02:25:40.000Z,16.00
2022-08-10T02:28:30.208Z,16.00
2022-08-10T02:31:23.139Z,16.00
2022-08-10T02:34:14.263Z,15.90
2022-08-10T02:37:03.902Z,15.90
2022-08-10T02:39:57.576Z,15.90
2022-08-10T02:45:19.600Z,15.90
2022-08-10T02:46:13.034Z,15.90
2022-08-10T02:49:02.626Z,15.80
2022-08-10T02:52:29.377Z,15.80
2022-08-10T02:55:32.598Z,15.80
2022-08-10T02:58:31.796Z,15.70
2022-08-10T03:01:21.412Z,15.70
2022-08-10T03:04:55.792Z,15.70
2022-08-10T03:07:44.404Z,15.70
2022-08-10T03:10:34.073Z,15.60
2022-08-10T03:13:22.017Z,15.60
2022-08-10T03:16:09.450Z,15.50
2022-08-10T03:18:56.989Z,15.40
2022-08-10T03:21:46.665Z,15.40
2022-08-10T03:24:35.533Z,15.40
2022-08-10T03:27:24.119Z,15.30
2022-08-10T03:30:28.641Z,15.30
2022-08-10T03:33:19.761Z,15.30
2022-08-10T03:36:44.088Z,15.30
2022-08-10T03:39:13.676Z,15.20
2022-08-10T03:42:03.620Z,15.20
2022-08-10T03:44:52.697Z,15.20
2022-08-10T03:47:40.391Z,15.20
2022-08-10T03:50:45.702Z,15.20
2022-08-10T03:54:04.368Z,15.10
2022-08-10T03:56:42.908Z,15.00
2022-08-10T03:59:31.366Z,15.00
2022-08-10T04:02:44.918Z,14.90
2022-08-10T04:05:24.563Z,14.90
2022-08-10T04:08:25.222Z,14.90
2022-08-10T04:11:12.442Z,14.90
2022-08-10T04:13:59.091Z,14.90
2022-08-10T04:16:45.518Z,14.90
2022-08-10T04:19:41.875Z,14.90
2022-08-10T04:22:29.046Z,14.90
2022-08-10T04:25:16.100Z,14.90
2022-08-10T04:28:03.552Z,14.90
2022-08-10T04:36:05.972Z,14.90
2022-08-10T04:38:53.217Z,14.90
2022-08-10T04:41:39.556Z,14.90
2022-08-10T04:44:32.549Z,14.90
2022-08-10T04:47:57.437Z,15.00
2022-08-10T04:50:24.601Z,15.00
2022-08-10T04:53:12.621Z,15.00
2022-08-10T04:55:59.208Z,15.10
2022-08-10T04:58:45.242Z,15.00
2022-08-10T05:01:37.811Z,15.20
2022-08-10T05:04:39.531Z,15.30
2022-08-10T05:07:26.309Z,15.30
2022-08-10T05:10:13.611Z,15.40
2022-08-10T05:12:59.647Z,15.40
2022-08-10T05:15:45.951Z,15.50
2022-08-10T05:18:31.996Z,15.60
2022-08-10T05:22:03.344Z,15.60
2022-08-10T05:24:23.852Z,15.70
2022-08-10T05:27:10.681Z,15.80
2022-08-10T05:30:01.779Z,15.90
2022-08-10T05:32:57.138Z,16.00
2022-08-10T05:35:52.804Z,16.10
2022-08-10T05:38:45.189Z,16.20
2022-08-10T05:41:32.397Z,16.30
2022-08-10T05:44:19.007Z,16.50
2022-08-10T05:47:10.959Z,16.50
2022-08-10T05:50:01.193Z,16.70
2022-08-10T05:52:48.362Z,16.90
2022-08-10T05:55:34.627Z,16.90
2022-08-10T05:58:20.794Z,17.10
2022-08-10T06:01:12.926Z,17.20
2022-08-10T06:03:59.773Z,17.20
2022-08-10T06:06:48.288Z,17.30
2022-08-10T06:09:37.998Z,17.40
2022-08-10T06:13:26.658Z,17.50
2022-08-10T06:16:16.096Z,17.60
2022-08-10T06:19:03.111Z,17.70
2022-08-10T06:22:01.036Z,17.70
2022-08-10T06:25:21.534Z,17.80
2022-08-10T06:27:56.737Z,17.90
2022-08-10T06:30:45.005Z,18.00
2022-08-10T06:33:34.612Z,18.10
2022-08-10T06:36:21.782Z,18.20
2022-08-10T06:39:30.320Z,18.30
2022-08-10T06:42:33.431Z,18.30
2022-08-10T06:45:27.497Z,18.40
2022-08-10T06:48:26.796Z,18.50
2022-08-10T06:51:21.636Z,18.50
2022-08-10T06:54:10.664Z,18.50
2022-08-10T06:57:17.221Z,18.60
2022-08-10T07:00:05.912Z,18.60
2022-08-10T07:02:57.071Z,18.60
2022-08-10T07:05:51.357Z,18.70
2022-08-10T07:08:39.701Z,18.70
2022-08-10T07:11:27.850Z,18.70
2022-08-10T07:14:18.569Z,18.80
2022-08-10T07:17:06.011Z,18.80
2022-08-10T07:19:57.559Z,18.80
2022-08-10T07:23:27.211Z,18.90
2022-08-10T07:25:53.820Z,18.90
2022-08-10T07:28:42.993Z,19.00
2022-08-10T07:31:56.221Z,19.00
2022-08-10T07:34:40.846Z,19.10
2022-08-10T07:37:30.291Z,19.10
2022-08-10T07:40:19.794Z,19.10
2022-08-10T07:43:07.352Z,19.20
2022-08-10T07:45:55.819Z,19.20
2022-08-10T07:48:49.103Z,19.30
2022-08-10T07:51:37.380Z,19.40
2022-08-10T07:54:25.337Z,19.40
2022-08-10T07:57:24.047Z,19.50
2022-08-10T08:00:19.647Z,19.60
2022-08-10T08:03:07.559Z,19.70
2022-08-10T08:06:03.304Z,19.80
2022-08-10T08:08:55.665Z,19.80
2022-08-10T08:11:44.824Z,19.90
2022-08-10T08:14:33.410Z,20.00
2022-08-10T08:17:22.622Z,20.00
2022-08-10T08:20:23.627Z,20.10
2022-08-10T08:24:10.492Z,20.10
2022-08-10T08:26:21.999Z,20.10
2022-08-10T08:29:10.818Z,20.20
2022-08-10T08:32:02.689Z,20.30
2022-08-10T08:34:53.828Z,20.40
2022-08-10T08:38:30.192Z,20.50
2022-08-10T08:41:03.517Z,20.50
2022-08-10T08:44:14.783Z,20.60
2022-08-10T08:48:04.864Z,20.70
2022-08-10T08:51:12.085Z,20.80
2022-08-10T08:54:16.907Z,20.90
2022-08-10T08:57:49.392Z,21.00
2022-08-10T09:00:45.551Z,21.10
2022-08-10T09:03:52.273Z,21.20
2022-08-10T09:07:07.161Z,21.30
2022-08-10T09:10:37.728Z,21.40
2022-08-10T09:14:05.174Z,21.50
2022-08-10T09:17:13.905Z,21.60
2022-08-10T09:20:15.973Z,21.70
2022-08-10T09:23:19.821Z,21.90
2022-08-10T09:26:17.202Z,22.00
2022-08-10T09:29:12.734Z,22.10
2022-08-10T09:36:13.600Z,22.20
2022-08-10T09:36:20.906Z,22.30
2022-08-10T09:40:12.229Z,22.40
2022-08-10T09:43:23.421Z,22.40
2022-08-10T09:46:12.749Z,22.50
2022-08-10T09:49:11.100Z,22.60
2022-08-10T09:52:09.687Z,22.70
2022-08-10T09:55:06.310Z,22.80
2022-08-10T09:58:10.542Z,22.80
2022-08-10T10:02:00.716Z,22.90
2022-08-10T10:05:11.793Z,23.00
2022-08-10T10:08:24.865Z,23.00
2022-08-10T10:11:39.521Z,23.20
2022-08-10T10:15:08.591Z,23.30
2022-08-10T10:18:08.013Z,23.50
2022-08-10T10:21:11.532Z,23.60
2022-08-10T10:24:30.259Z,23.80
2022-08-10T10:27:38.436Z,23.90
2022-08-10T10:30:32.106Z,24.00
2022-08-10T10:33:41.405Z,24.00
2022-08-10T10:36:29.176Z,24.10
2022-08-10T10:39:23.771Z,24.10
2022-08-10T10:42:44.962Z,24.20
2022-08-10T10:45:53.779Z,24.30
2022-08-10T10:48:57.439Z,24.40
2022-08-10T10:51:47.565Z,24.50
2022-08-10T10:54:50.235Z,24.50
2022-08-10T10:58:00.365Z,24.70
2022-08-10T11:01:03.734Z,24.70
2022-08-10T11:03:59.053Z,24.80
2022-08-10T11:07:10.488Z,24.90
2022-08-10T11:10:31.991Z,24.90
2022-08-10T11:14:24.897Z,25.00
2022-08-10T11:16:43.375Z,25.10
2022-08-10T11:20:20.902Z,25.20
2022-08-10T11:23:31.510Z,25.30
2022-08-10T11:26:36.494Z,25.30
2022-08-10T11:29:52.864Z,25.40
2022-08-10T11:33:05.822Z,25.40
2022-08-10T11:36:02.816Z,25.50
2022-08-10T11:39:13.872Z,25.60
2022-08-10T11:42:20.085Z,25.70
2022-08-10T11:45:32.233Z,25.70
2022-08-10T11:48:52.979Z,25.80
2022-08-10T11:51:45.853Z,25.80
2022-08-10T11:54:43.600Z,25.90
2022-08-10T11:57:54.696Z,25.90
2022-08-10T12:00:39.725Z,26.00
2022-08-10T12:03:31.388Z,26.10
2022-08-10T12:06:53.750Z,26.10
2022-08-10T12:10:04.126Z,26.20
2022-08-10T12:12:47.064Z,26.20
2022-08-10T12:15:55.827Z,26.20
2022-08-10T12:19:02.806Z,26.30
2022-08-10T12:22:05.798Z,26.40
2022-08-10T12:24:57.184Z,26.60
2022-08-10T12:27:53.161Z,26.70
2022-08-10T12:30:46.511Z,26.80
2022-08-10T12:34:01.953Z,26.90
2022-08-10T12:36:54.403Z,27.10
2022-08-10T12:40:06.892Z,27.20
2022-08-10T12:44:04.870Z,27.30
2022-08-10T12:46:41.787Z,27.40
2022-08-10T12:49:41.751Z,27.50
2022-08-10T12:52:55.438Z,27.60
2022-08-10T12:55:42.092Z,27.70
2022-08-10T12:58:58.235Z,27.70
2022-08-10T13:02:10.192Z,27.80
2022-08-10T13:04:45.939Z,27.80
2022-08-10T13:08:24.579Z,27.90
2022-08-10T13:10:54.917Z,28.00
2022-08-10T13:13:49.309Z,28.10
2022-08-10T13:16:36.262Z,28.20
2022-08-10T13:19:24.962Z,28.20
2022-08-10T13:22:13.161Z,28.30
2022-08-10T13:25:02.950Z,28.40
2022-08-10T13:28:01.348Z,28.50
2022-08-10T13:30:56.767Z,28.60
2022-08-10T13:34:38.906Z,28.70
2022-08-10T13:36:57.094Z,28.70
2022-08-10T13:39:59.393Z,28.80
2022-08-10T13:42:47.227Z,28.90
2022-08-10T13:45:39.235Z,29.00
2022-08-10T13:48:27.877Z,29.00
2022-08-10T13:51:16.220Z,29.10
2022-08-10T13:54:03.115Z,29.20
2022-08-10T13:56:52.204Z,29.30
2022-08-10T14:00:34.903Z,29.40
2022-08-10T14:03:10.978Z,29.50
2022-08-10T14:05:59.115Z,29.60
2022-08-10T14:08:56.724Z,29.70
2022-08-10T14:11:48.996Z,29.80
2022-08-10T14:14:37.314Z,29.90
2022-08-10T14:17:25.841Z,30.00
2022-08-10T14:20:17.928Z,30.10
2022-08-10T14:23:14.673Z,30.30
2022-08-10T14:26:08.729Z,30.40
2022-08-10T14:29:02.857Z,30.50
2022-08-10T14:32:01.670Z,30.60
2022-08-10T14:36:16.544Z,30.70
2022-08-10T14:37:58.482Z,30.90
2022-08-10T14:40:47.093Z,31.00
2022-08-10T14:43:40.985Z,31.10
2022-08-10T14:46:29.793Z,31.30
2022-08-10T14:49:26.106Z,31.40
2022-08-10T14:52:13.810Z,31.50
2022-08-10T14:55:04.789Z,31.70
2022-08-10T14:58:20.918Z,31.80
2022-08-10T15:00:58.833Z,32.00
2022-08-10T15:04:01.340Z,32.20
2022-08-10T15:06:57.549Z,32.40
2022-08-10T15:09:59.814Z,32.70
2022-08-10T15:12:50.355Z,33.10
2022-08-10T15:16:10.941Z,33.60
2022-08-10T15:18:58.183Z,34.10
2022-08-10T15:21:45.843Z,34.70
2022-08-10T15:24:52.324Z,35.40
2022-08-10T15:27:54.987Z,36.00
2022-08-10T15:30:48.383Z,36.80
2022-08-10T15:34:09.375Z,37.50
2022-08-10T15:37:40.699Z,38.20
2022-08-10T15:40:30.753Z,38.90
2022-08-10T15:43:24.913Z,39.80
2022-08-10T15:46:22.947Z,40.50
2022-08-10T15:49:47.568Z,41.00
2022-08-10T15:53:02.072Z,41.60
2022-08-10T15:55:53.531Z,42.00
2022-08-10T15:58:46.723Z,42.50
2022-08-10T16:02:14.482Z,42.90
2022-08-10T16:05:17.944Z,43.30
2022-08-10T16:08:08.364Z,43.70
2022-08-10T16:11:06.103Z,43.90
2022-08-10T16:14:00.899Z,44.10
2022-08-10T16:16:57.625Z,44.20
2022-08-10T16:20:06.893Z,44.30
2022-08-10T16:22:58.980Z,44.30
2022-08-10T16:25:52.670Z,44.40
2022-08-10T16:29:07.440Z,44.40
2022-08-10T16:32:04.180Z,44.40
2022-08-10T16:34:51.932Z,44.50
2022-08-10T16:37:58.911Z,44.60
2022-08-10T16:40:49.186Z,44.60
2022-08-10T16:43:38.033Z,44.70
2022-08-10T16:46:26.199Z,44.70
2022-08-10T16:49:15.730Z,44.80
2022-08-10T16:52:04.115Z,44.90
2022-08-10T16:54:52.806Z,44.90
2022-08-10T16:57:41.838Z,45.00
2022-08-10T17:00:29.281Z,45.10
2022-08-10T17:03:22.382Z,45.30
2022-08-10T17:06:35.394Z,45.50
2022-08-10T17:09:36.936Z,45.60
2022-08-10T17:12:44.507Z,45.60
2022-08-10T17:16:01.417Z,45.70
2022-08-10T17:18:48.769Z,45.60
2022-08-10T17:21:38.675Z,45.40
2022-08-10T17:24:46.851Z,45.30
2022-08-10T17:28:05.378Z,45.20
2022-08-10T17:30:58.197Z,45.20
2022-08-10T17:34:00.559Z,45.10
2022-08-10T17:37:10.165Z,44.90
2022-08-10T17:40:14.740Z,44.90
2022-08-10T17:43:09.240Z,44.70
2022-08-10T17:45:58.462Z,44.50
2022-08-10T17:48:49.370Z,44.20
2022-08-10T17:52:01.775Z,43.90
2022-08-10T17:55:03.975Z,43.60
2022-08-10T17:58:01.867Z,42.80
2022-08-10T18:00:56.335Z,41.50
2022-08-10T18:03:44.027Z,39.70
2022-08-10T18:06:31.349Z,37.70
2022-08-10T18:09:38.460Z,35.90
2022-08-10T18:12:49.816Z,34.20
2022-08-10T18:15:44.668Z,32.80
2022-08-10T18:18:41.280Z,31.60
2022-08-10T18:21:31.575Z,30.60
2022-08-10T18:24:23.270Z,29.70
2022-08-10T18:27:14.736Z,29.00
2022-08-10T18:30:08.257Z,28.40
2022-08-10T18:32:57.574Z,28.00
2022-08-10T18:35:49.961Z,27.50
2022-08-10T18:38:38.703Z,27.20
2022-08-10T18:42:00.408Z,26.80
2022-08-10T18:44:57.708Z,26.30
2022-08-10T18:47:58.964Z,25.80
2022-08-10T18:50:54.869Z,25.40
2022-08-10T18:53:50.654Z,25.00
2022-08-10T18:57:02.839Z,24.70
2022-08-10T19:00:18.470Z,24.40
2022-08-10T19:03:15.657Z,24.10
2022-08-10T19:06:36.884Z,23.90
2022-08-10T19:09:47.586Z,23.80
2022-08-10T19:12:57.005Z,23.60
2022-08-10T19:15:53.567Z,23.50
2022-08-10T19:19:00.874Z,23.30
2022-08-10T19:22:20.844Z,23.20
2022-08-10T19:26:36.501Z,23.10
2022-08-10T19:30:08.502Z,23.00
2022-08-10T19:32:53.153Z,22.90
2022-08-10T19:36:18.629Z,22.80
2022-08-10T19:39:22.540Z,22.70
2022-08-10T19:42:37.346Z,22.50
2022-08-10T19:46:01.164Z,22.50
2022-08-10T19:49:23.865Z,22.30
2022-08-10T19:52:47.559Z,22.20
2022-08-10T19:55:50.418Z,22.10
2022-08-10T19:58:46.256Z,22.00
2022-08-10T20:01:55.466Z,21.90
2022-08-10T20:04:52.768Z,21.80
2022-08-10T20:07:54.294Z,21.80
2022-08-10T20:10:56.743Z,21.70
2022-08-10T20:13:54.330Z,21.60
2022-08-10T20:16:45.274Z,21.60
2022-08-10T20:19:54.839Z,21.50
2022-08-10T20:22:58.162Z,21.40
2022-08-10T20:26:02.505Z,21.30
2022-08-10T20:28:57.626Z,21.30
2022-08-10T20:31:58.466Z,21.20
2022-08-10T20:35:04.458Z,21.10
2022-08-10T20:38:13.801Z,21.10
2022-08-10T20:41:16.693Z,21.00
2022-08-10T20:44:32.001Z,20.90
2022-08-10T20:47:31.285Z,20.90
2022-08-10T20:50:43.007Z,20.80
2022-08-10T20:53:36.338Z,20.80
2022-08-10T20:56:52.024Z,20.70
2022-08-10T21:00:12.635Z,20.60
2022-08-10T21:02:59.837Z,20.60
2022-08-10T21:06:11.657Z,20.50
2022-08-10T21:09:29.015Z,20.40
2022-08-10T21:12:38.213Z,20.40
2022-08-10T21:16:02.214Z,20.40
2022-08-10T21:19:10.997Z,20.30
2022-08-10T21:22:18.861Z,20.20
2022-08-10T21:25:29.816Z,20.20
2022-08-10T21:28:53.952Z,20.10
2022-08-10T21:31:52.872Z,20.10
2022-08-10T21:34:54.167Z,20.10
2022-08-10T21:38:05.483Z,20.00
2022-08-10T21:41:18.053Z,20.00
2022-08-10T21:44:35.180Z,20.00
2022-08-10T21:48:15.684Z,20.00
2022-08-10T21:52:01.634Z,19.90
2022-08-10T21:55:14.245Z,19.90
2022-08-10T21:58:27.736Z,19.80
2022-08-10T22:01:41.845Z,19.80
2022-08-10T22:04:48.394Z,19.70
2022-08-10T22:07:55.000Z,19.70
2022-08-10T22:11:05.402Z,19.70
2022-08-10T22:14:11.255Z,19.60
2022-08-10T22:18:03.418Z,19.60
2022-08-10T22:20:54.999Z,19.50
2022-08-10T22:24:27.443Z,19.50
2022-08-10T22:27:57.163Z,19.50
2022-08-10T22:32:01.240Z,19.40
2022-08-10T22:35:46.990Z,19.40
2022-08-10T22:40:07.711Z,19.40
2022-08-10T22:43:09.771Z,19.30
2022-08-10T22:46:18.630Z,19.30
2022-08-10T22:49:04.939Z,19.20
2022-08-10T22:51:53.567Z,19.20
2022-08-10T22:55:24.633Z,19.20
2022-08-10T22:58:37.858Z,19.10
2022-08-10T23:02:07.079Z,19.10
2022-08-10T23:04:55.665Z,19.10
2022-08-10T23:07:49.611Z,19.00
2022-08-10T23:10:41.262Z,19.00
2022-08-10T23:13:36.060Z,18.90
2022-08-10T23:16:46.065Z,18.90
2022-08-10T23:19:37.084Z,18.90
2022-08-10T23:22:37.562Z,18.80
2022-08-10T23:25:28.323Z,18.80
2022-08-10T23:28:18.838Z,18.70
2022-08-10T23:32:01.170Z,18.70
2022-08-10T23:34:34.732Z,18.70
2022-08-10T23:37:32.344Z,18.60
2022-08-10T23:40:19.789Z,18.60
2022-08-10T23:43:06.984Z,18.60
2022-08-10T23:46:00.458Z,18.60
2022-08-10T23:48:51.324Z,18.50
2022-08-10T23:51:55.274Z,18.50
2022-08-10T23:55:07.726Z,18.40
2022-08-10T23:58:06.444Z,18.40
